sensor_id;sensor_type;location;lat;lon;timestamp;temperature;humidity
30069;DHT22;16894;49.456;10.644;2024-01-25T00:01:14;7.20;1.00
30069;DHT22;16894;49.456;10.644;2024-01-25T00:03:39;7.20;1.00
30069;DHT22;16894;49.456;10.644;2024-01-25T00:06:05;7.20;9.10
30069;DHT22;16894;49.456;10.644;2024-01-25T00:08:31;7.20;1.00
30069;DHT22;16894;49.456;10.644;2024-01-25T00:10:56;7.20;1.00
30069;DHT22;16894;49.456;10.644;2024-01-25T00:13:22;7.20;99.90
30069;DHT22;16894;49.456;10.644;2024-01-25T00:15:47;7.20;99.90
30069;DHT22;16894;49.456;10.644;2024-01-25T00:18:13;7.20;1.00
30069;DHT22;16894;49.456;10.644;2024-01-25T00:20:38;7.20;99.90
30069;DHT22;16894;49.456;10.644;2024-01-25T00:23:04;7.30;99.90
30069;DHT22;16894;49.456;10.644;2024-01-25T00:25:30;7.30;99.90
30069;DHT22;16894;49.456;10.644;2024-01-25T00:27:55;7.30;99.90
30069;DHT22;16894;49.456;10.644;2024-01-25T00:30:21;7.30;99.90
30069;DHT22;16894;49.456;10.644;2024-01-25T00:32:47;7.20;99.90
30069;DHT22;16894;49.456;10.644;2024-01-25T00:35:13;7.30;99.90
30069;DHT22;16894;49.456;10.644;2024-01-25T00:37:39;7.30;99.90
30069;DHT22;16894;49.456;10.644;2024-01-25T00:40:05;7.30;99.90
30069;DHT22;16894;49.456;10.644;2024-01-25T00:42:31;7.30;99.90
30069;DHT22;16894;49.456;10.644;2024-01-25T00:44:57;7.30;1.00
30069;DHT22;16894;49.456;10.644;2024-01-25T00:47:23;7.30;99.90
30069;DHT22;16894;49.456;10.644;2024-01-25T00:49:48;7.10;1.00
30069;DHT22;16894;49.456;10.644;2024-01-25T00:52:14;7.10;1.00
30069;DHT22;16894;49.456;10.644;2024-01-25T00:54:40;7.20;40.20
30069;DHT22;16894;49.456;10.644;2024-01-25T00:57:05;7.10;69.70
30069;DHT22;16894;49.456;10.644;2024-01-25T00:59:31;7.10;41.80
30069;DHT22;16894;49.456;10.644;2024-01-25T01:01:57;7.10;80.00
30069;DHT22;16894;49.456;10.644;2024-01-25T01:04:24;7.00;99.90
30069;DHT22;16894;49.456;10.644;2024-01-25T01:06:49;6.90;99.90
30069;DHT22;16894;49.456;10.644;2024-01-25T01:09:15;6.90;99.90
30069;DHT22;16894;49.456;10.644;2024-01-25T01:11:41;7.00;99.90
30069;DHT22;16894;49.456;10.644;2024-01-25T01:14:06;6.90;99.90
30069;DHT22;16894;49.456;10.644;2024-01-25T01:16:32;7.00;99.90
30069;DHT22;16894;49.456;10.644;2024-01-25T01:18:58;7.00;99.90
30069;DHT22;16894;49.456;10.644;2024-01-25T01:21:31;7.00;52.00
30069;DHT22;16894;49.456;10.644;2024-01-25T01:23:57;7.00;65.60
30069;DHT22;16894;49.456;10.644;2024-01-25T01:26:22;7.10;1.00
30069;DHT22;16894;49.456;10.644;2024-01-25T01:28:48;7.20;99.90
30069;DHT22;16894;49.456;10.644;2024-01-25T01:31:13;7.20;99.90
30069;DHT22;16894;49.456;10.644;2024-01-25T01:33:39;7.20;99.90
30069;DHT22;16894;49.456;10.644;2024-01-25T01:36:05;7.20;99.90
30069;DHT22;16894;49.456;10.644;2024-01-25T01:38:30;7.10;99.90
30069;DHT22;16894;49.456;10.644;2024-01-25T01:40:56;7.10;99.90
30069;DHT22;16894;49.456;10.644;2024-01-25T01:43:21;7.10;1.00
30069;DHT22;16894;49.456;10.644;2024-01-25T01:45:48;7.00;1.00
30069;DHT22;16894;49.456;10.644;2024-01-25T01:48:14;6.90;1.00
30069;DHT22;16894;49.456;10.644;2024-01-25T01:50:40;6.90;49.90
30069;DHT22;16894;49.456;10.644;2024-01-25T01:53:06;6.80;92.60
30069;DHT22;16894;49.456;10.644;2024-01-25T01:55:32;6.90;91.70
30069;DHT22;16894;49.456;10.644;2024-01-25T01:57:58;6.90;9.90
30069;DHT22;16894;49.456;10.644;2024-01-25T02:00:24;6.90;1.00
30069;DHT22;16894;49.456;10.644;2024-01-25T02:02:50;6.90;1.00
30069;DHT22;16894;49.456;10.644;2024-01-25T02:05:16;7.00;99.90
30069;DHT22;16894;49.456;10.644;2024-01-25T02:07:42;7.00;99.90
30069;DHT22;16894;49.456;10.644;2024-01-25T02:10:08;7.00;99.90
30069;DHT22;16894;49.456;10.644;2024-01-25T02:12:33;7.00;99.90
30069;DHT22;16894;49.456;10.644;2024-01-25T02:14:59;7.00;99.90
30069;DHT22;16894;49.456;10.644;2024-01-25T02:17:24;7.00;99.90
30069;DHT22;16894;49.456;10.644;2024-01-25T02:19:50;7.00;99.90
30069;DHT22;16894;49.456;10.644;2024-01-25T02:22:19;7.00;72.50
30069;DHT22;16894;49.456;10.644;2024-01-25T02:24:44;7.00;43.20
30069;DHT22;16894;49.456;10.644;2024-01-25T02:27:10;7.00;22.60
30069;DHT22;16894;49.456;10.644;2024-01-25T02:29:36;7.00;1.00
30069;DHT22;16894;49.456;10.644;2024-01-25T02:32:03;7.00;1.00
30069;DHT22;16894;49.456;10.644;2024-01-25T02:34:28;7.00;45.80
30069;DHT22;16894;49.456;10.644;2024-01-25T02:36:54;6.90;94.00
30069;DHT22;16894;49.456;10.644;2024-01-25T02:39:20;6.90;90.10
30069;DHT22;16894;49.456;10.644;2024-01-25T02:41:45;6.90;99.90
30069;DHT22;16894;49.456;10.644;2024-01-25T02:44:11;6.90;99.90
30069;DHT22;16894;49.456;10.644;2024-01-25T02:46:36;6.90;99.90
30069;DHT22;16894;49.456;10.644;2024-01-25T02:49:03;6.80;99.90
30069;DHT22;16894;49.456;10.644;2024-01-25T02:51:28;6.80;99.90
30069;DHT22;16894;49.456;10.644;2024-01-25T02:53:54;6.70;99.90
30069;DHT22;16894;49.456;10.644;2024-01-25T02:56:19;6.60;1.00
30069;DHT22;16894;49.456;10.644;2024-01-25T02:58:45;6.60;1.00
30069;DHT22;16894;49.456;10.644;2024-01-25T03:01:10;6.50;99.30
30069;DHT22;16894;49.456;10.644;2024-01-25T03:03:36;6.40;99.90
30069;DHT22;16894;49.456;10.644;2024-01-25T03:06:02;6.40;99.90
30069;DHT22;16894;49.456;10.644;2024-01-25T03:08:28;6.30;99.90
30069;DHT22;16894;49.456;10.644;2024-01-25T03:10:53;6.40;99.90
30069;DHT22;16894;49.456;10.644;2024-01-25T03:13:19;6.30;99.90
30069;DHT22;16894;49.456;10.644;2024-01-25T03:15:44;6.40;99.90
30069;DHT22;16894;49.456;10.644;2024-01-25T03:18:10;6.40;99.90
30069;DHT22;16894;49.456;10.644;2024-01-25T03:20:36;6.40;99.90
30069;DHT22;16894;49.456;10.644;2024-01-25T03:23:01;6.40;99.90
30069;DHT22;16894;49.456;10.644;2024-01-25T03:25:28;6.40;99.90
30069;DHT22;16894;49.456;10.644;2024-01-25T03:27:53;6.40;99.90
30069;DHT22;16894;49.456;10.644;2024-01-25T03:30:19;6.40;99.90
30069;DHT22;16894;49.456;10.644;2024-01-25T03:32:45;6.30;99.90
30069;DHT22;16894;49.456;10.644;2024-01-25T03:35:11;6.40;99.90
30069;DHT22;16894;49.456;10.644;2024-01-25T03:37:37;6.40;99.90
30069;DHT22;16894;49.456;10.644;2024-01-25T03:40:04;6.40;99.90
30069;DHT22;16894;49.456;10.644;2024-01-25T03:42:30;6.30;99.90
30069;DHT22;16894;49.456;10.644;2024-01-25T03:44:55;6.20;99.90
30069;DHT22;16894;49.456;10.644;2024-01-25T03:47:21;6.20;99.90
30069;DHT22;16894;49.456;10.644;2024-01-25T03:49:47;6.30;99.90
30069;DHT22;16894;49.456;10.644;2024-01-25T03:52:13;6.30;99.90
30069;DHT22;16894;49.456;10.644;2024-01-25T03:54:38;6.30;99.90
30069;DHT22;16894;49.456;10.644;2024-01-25T03:57:04;6.30;99.90
30069;DHT22;16894;49.456;10.644;2024-01-25T03:59:30;6.40;83.50
30069;DHT22;16894;49.456;10.644;2024-01-25T04:01:55;6.50;1.00
30069;DHT22;16894;49.456;10.644;2024-01-25T04:04:21;6.60;99.90
30069;DHT22;16894;49.456;10.644;2024-01-25T04:06:47;6.50;1.00
30069;DHT22;16894;49.456;10.644;2024-01-25T04:09:12;6.40;1.00
30069;DHT22;16894;49.456;10.644;2024-01-25T04:11:38;6.40;1.00
30069;DHT22;16894;49.456;10.644;2024-01-25T04:14:04;6.40;1.00
30069;DHT22;16894;49.456;10.644;2024-01-25T04:16:30;6.40;1.00
30069;DHT22;16894;49.456;10.644;2024-01-25T04:18:56;6.50;1.00
30069;DHT22;16894;49.456;10.644;2024-01-25T04:21:22;6.60;1.00
30069;DHT22;16894;49.456;10.644;2024-01-25T04:23:48;6.60;99.90
30069;DHT22;16894;49.456;10.644;2024-01-25T04:26:14;6.60;99.90
30069;DHT22;16894;49.456;10.644;2024-01-25T04:28:39;6.60;99.90
30069;DHT22;16894;49.456;10.644;2024-01-25T04:31:05;6.70;99.90
30069;DHT22;16894;49.456;10.644;2024-01-25T04:33:30;6.70;99.90
30069;DHT22;16894;49.456;10.644;2024-01-25T04:35:56;6.60;99.90
30069;DHT22;16894;49.456;10.644;2024-01-25T04:38:21;6.60;99.90
30069;DHT22;16894;49.456;10.644;2024-01-25T04:40:47;6.50;99.90
30069;DHT22;16894;49.456;10.644;2024-01-25T04:43:13;6.50;1.00
30069;DHT22;16894;49.456;10.644;2024-01-25T04:45:39;6.40;87.80
30069;DHT22;16894;49.456;10.644;2024-01-25T04:48:05;6.30;99.90
30069;DHT22;16894;49.456;10.644;2024-01-25T04:50:31;6.30;99.90
30069;DHT22;16894;49.456;10.644;2024-01-25T04:52:56;6.30;99.90
30069;DHT22;16894;49.456;10.644;2024-01-25T04:55:22;6.30;99.90
30069;DHT22;16894;49.456;10.644;2024-01-25T04:57:47;6.30;99.90
30069;DHT22;16894;49.456;10.644;2024-01-25T05:00:15;6.30;99.90
30069;DHT22;16894;49.456;10.644;2024-01-25T05:02:41;6.20;99.90
30069;DHT22;16894;49.456;10.644;2024-01-25T05:05:07;6.20;99.90
30069;DHT22;16894;49.456;10.644;2024-01-25T05:07:33;6.30;99.90
30069;DHT22;16894;49.456;10.644;2024-01-25T05:09:59;6.30;99.90
30069;DHT22;16894;49.456;10.644;2024-01-25T05:12:25;6.20;99.90
30069;DHT22;16894;49.456;10.644;2024-01-25T05:14:51;6.20;99.90
30069;DHT22;16894;49.456;10.644;2024-01-25T05:17:16;6.20;1.00
30069;DHT22;16894;49.456;10.644;2024-01-25T05:19:42;6.10;1.00
30069;DHT22;16894;49.456;10.644;2024-01-25T05:22:07;6.20;1.00
30069;DHT22;16894;49.456;10.644;2024-01-25T05:24:33;6.20;1.00
30069;DHT22;16894;49.456;10.644;2024-01-25T05:26:59;6.30;99.90
30069;DHT22;16894;49.456;10.644;2024-01-25T05:29:24;6.20;99.90
30069;DHT22;16894;49.456;10.644;2024-01-25T05:31:50;6.10;1.00
30069;DHT22;16894;49.456;10.644;2024-01-25T05:34:15;6.10;1.00
30069;DHT22;16894;49.456;10.644;2024-01-25T05:36:41;6.00;1.00
30069;DHT22;16894;49.456;10.644;2024-01-25T05:39:07;6.00;1.00
30069;DHT22;16894;49.456;10.644;2024-01-25T05:41:33;6.00;1.00
30069;DHT22;16894;49.456;10.644;2024-01-25T05:43:59;6.00;1.00
30069;DHT22;16894;49.456;10.644;2024-01-25T05:46:26;6.00;1.00
30069;DHT22;16894;49.456;10.644;2024-01-25T05:48:51;6.00;1.00
30069;DHT22;16894;49.456;10.644;2024-01-25T05:51:17;6.00;1.00
30069;DHT22;16894;49.456;10.644;2024-01-25T05:53:43;6.00;1.00
30069;DHT22;16894;49.456;10.644;2024-01-25T05:56:08;6.00;1.00
30069;DHT22;16894;49.456;10.644;2024-01-25T05:58:34;6.10;1.00
30069;DHT22;16894;49.456;10.644;2024-01-25T06:01:00;6.10;1.00
30069;DHT22;16894;49.456;10.644;2024-01-25T06:03:25;6.20;99.90
30069;DHT22;16894;49.456;10.644;2024-01-25T06:05:51;6.20;99.90
30069;DHT22;16894;49.456;10.644;2024-01-25T06:08:16;6.30;99.90
30069;DHT22;16894;49.456;10.644;2024-01-25T06:10:42;6.30;99.90
30069;DHT22;16894;49.456;10.644;2024-01-25T06:13:08;6.30;99.90
30069;DHT22;16894;49.456;10.644;2024-01-25T06:15:34;6.30;99.90
30069;DHT22;16894;49.456;10.644;2024-01-25T06:17:59;6.20;99.90
30069;DHT22;16894;49.456;10.644;2024-01-25T06:20:25;6.30;99.90
30069;DHT22;16894;49.456;10.644;2024-01-25T06:22:50;6.20;99.90
30069;DHT22;16894;49.456;10.644;2024-01-25T06:25:16;6.10;99.90
30069;DHT22;16894;49.456;10.644;2024-01-25T06:27:41;6.10;99.90
30069;DHT22;16894;49.456;10.644;2024-01-25T06:30:07;5.90;99.90
30069;DHT22;16894;49.456;10.644;2024-01-25T06:32:33;5.80;1.00
30069;DHT22;16894;49.456;10.644;2024-01-25T06:34:58;5.80;1.00
30069;DHT22;16894;49.456;10.644;2024-01-25T06:37:24;5.80;1.00
30069;DHT22;16894;49.456;10.644;2024-01-25T06:39:50;5.80;1.00
30069;DHT22;16894;49.456;10.644;2024-01-25T06:42:15;5.70;1.00
30069;DHT22;16894;49.456;10.644;2024-01-25T06:44:41;5.70;10.20
30069;DHT22;16894;49.456;10.644;2024-01-25T06:47:07;5.60;23.00
30069;DHT22;16894;49.456;10.644;2024-01-25T06:49:32;5.50;72.40
30069;DHT22;16894;49.456;10.644;2024-01-25T06:52:01;5.50;99.90
30069;DHT22;16894;49.456;10.644;2024-01-25T06:54:26;5.40;99.90
30069;DHT22;16894;49.456;10.644;2024-01-25T06:56:52;5.40;99.90
30069;DHT22;16894;49.456;10.644;2024-01-25T06:59:17;5.30;99.90
30069;DHT22;16894;49.456;10.644;2024-01-25T07:01:43;5.30;99.90
30069;DHT22;16894;49.456;10.644;2024-01-25T07:04:09;5.30;99.90
30069;DHT22;16894;49.456;10.644;2024-01-25T07:06:34;5.30;99.90
30069;DHT22;16894;49.456;10.644;2024-01-25T07:09:00;5.30;99.90
30069;DHT22;16894;49.456;10.644;2024-01-25T07:11:25;5.20;99.90
30069;DHT22;16894;49.456;10.644;2024-01-25T07:13:51;5.20;99.90
30069;DHT22;16894;49.456;10.644;2024-01-25T07:16:17;5.10;99.90
30069;DHT22;16894;49.456;10.644;2024-01-25T07:18:44;5.10;99.90
30069;DHT22;16894;49.456;10.644;2024-01-25T07:21:10;5.10;99.90
30069;DHT22;16894;49.456;10.644;2024-01-25T07:23:36;5.10;99.90
30069;DHT22;16894;49.456;10.644;2024-01-25T07:26:01;5.00;99.90
30069;DHT22;16894;49.456;10.644;2024-01-25T07:28:27;5.00;99.90
30069;DHT22;16894;49.456;10.644;2024-01-25T07:30:53;5.00;99.90
30069;DHT22;16894;49.456;10.644;2024-01-25T07:33:18;5.00;99.90
30069;DHT22;16894;49.456;10.644;2024-01-25T07:35:44;5.00;99.90
30069;DHT22;16894;49.456;10.644;2024-01-25T07:38:13;5.00;99.90
30069;DHT22;16894;49.456;10.644;2024-01-25T07:40:39;4.90;99.90
30069;DHT22;16894;49.456;10.644;2024-01-25T07:43:04;5.00;99.90
30069;DHT22;16894;49.456;10.644;2024-01-25T07:45:31;5.00;99.90
30069;DHT22;16894;49.456;10.644;2024-01-25T07:47:56;5.00;99.90
30069;DHT22;16894;49.456;10.644;2024-01-25T07:50:22;5.00;99.90
30069;DHT22;16894;49.456;10.644;2024-01-25T07:52:47;5.10;99.90
30069;DHT22;16894;49.456;10.644;2024-01-25T07:55:15;5.10;99.90
30069;DHT22;16894;49.456;10.644;2024-01-25T07:57:41;5.10;99.90
30069;DHT22;16894;49.456;10.644;2024-01-25T08:00:06;5.20;99.90
30069;DHT22;16894;49.456;10.644;2024-01-25T08:02:34;5.30;99.90
30069;DHT22;16894;49.456;10.644;2024-01-25T08:04:59;5.30;99.90
30069;DHT22;16894;49.456;10.644;2024-01-25T08:07:25;5.40;99.90
30069;DHT22;16894;49.456;10.644;2024-01-25T08:09:51;5.40;99.90
30069;DHT22;16894;49.456;10.644;2024-01-25T08:12:18;5.40;99.90
30069;DHT22;16894;49.456;10.644;2024-01-25T08:14:43;5.50;99.90
30069;DHT22;16894;49.456;10.644;2024-01-25T08:17:09;5.50;99.90
30069;DHT22;16894;49.456;10.644;2024-01-25T08:19:35;5.50;99.90
30069;DHT22;16894;49.456;10.644;2024-01-25T08:22:00;5.60;99.90
30069;DHT22;16894;49.456;10.644;2024-01-25T08:24:30;5.60;93.30
30069;DHT22;16894;49.456;10.644;2024-01-25T08:26:56;5.70;74.60
30069;DHT22;16894;49.456;10.644;2024-01-25T08:29:21;5.80;44.90
30069;DHT22;16894;49.456;10.644;2024-01-25T08:31:47;5.80;19.60
30069;DHT22;16894;49.456;10.644;2024-01-25T08:34:13;5.90;1.00
30069;DHT22;16894;49.456;10.644;2024-01-25T08:36:38;5.90;1.00
30069;DHT22;16894;49.456;10.644;2024-01-25T08:39:04;6.00;99.90
30069;DHT22;16894;49.456;10.644;2024-01-25T08:41:30;6.10;99.90
30069;DHT22;16894;49.456;10.644;2024-01-25T08:43:56;6.20;99.90
30069;DHT22;16894;49.456;10.644;2024-01-25T08:46:21;6.30;99.90
30069;DHT22;16894;49.456;10.644;2024-01-25T08:48:47;6.30;99.90
30069;DHT22;16894;49.456;10.644;2024-01-25T08:51:12;6.40;99.90
30069;DHT22;16894;49.456;10.644;2024-01-25T08:53:38;6.50;99.90
30069;DHT22;16894;49.456;10.644;2024-01-25T08:56:03;6.50;99.90
30069;DHT22;16894;49.456;10.644;2024-01-25T08:58:30;6.60;20.50
30069;DHT22;16894;49.456;10.644;2024-01-25T09:00:55;6.60;99.90
30069;DHT22;16894;49.456;10.644;2024-01-25T09:03:21;6.60;53.70
30069;DHT22;16894;49.456;10.644;2024-01-25T09:05:47;6.60;26.50
30069;DHT22;16894;49.456;10.644;2024-01-25T09:08:13;6.60;14.00
30069;DHT22;16894;49.456;10.644;2024-01-25T09:10:40;6.70;1.00
30069;DHT22;16894;49.456;10.644;2024-01-25T09:13:05;6.80;1.00
30069;DHT22;16894;49.456;10.644;2024-01-25T09:15:31;7.00;99.90
30069;DHT22;16894;49.456;10.644;2024-01-25T09:17:57;7.10;99.90
30069;DHT22;16894;49.456;10.644;2024-01-25T09:20:23;7.20;99.90
30069;DHT22;16894;49.456;10.644;2024-01-25T09:22:49;7.40;1.00
30069;DHT22;16894;49.456;10.644;2024-01-25T09:25:14;7.50;99.90
30069;DHT22;16894;49.456;10.644;2024-01-25T09:27:41;7.60;99.90
30069;DHT22;16894;49.456;10.644;2024-01-25T09:30:07;7.70;95.00
30069;DHT22;16894;49.456;10.644;2024-01-25T09:32:33;7.80;1.00
30069;DHT22;16894;49.456;10.644;2024-01-25T09:34:59;7.90;1.00
30069;DHT22;16894;49.456;10.644;2024-01-25T09:37:24;8.10;99.90
30069;DHT22;16894;49.456;10.644;2024-01-25T09:39:50;8.10;20.90
30069;DHT22;16894;49.456;10.644;2024-01-25T09:42:17;7.80;99.90
30069;DHT22;16894;49.456;10.644;2024-01-25T09:44:43;7.80;99.90
30069;DHT22;16894;49.456;10.644;2024-01-25T09:47:09;7.70;99.90
30069;DHT22;16894;49.456;10.644;2024-01-25T09:49:35;7.90;99.90
30069;DHT22;16894;49.456;10.644;2024-01-25T09:52:04;8.10;99.90
30069;DHT22;16894;49.456;10.644;2024-01-25T09:54:33;8.00;64.80
30069;DHT22;16894;49.456;10.644;2024-01-25T09:56:59;8.00;98.10
30069;DHT22;16894;49.456;10.644;2024-01-25T09:59:25;8.20;1.00
30069;DHT22;16894;49.456;10.644;2024-01-25T10:01:51;8.30;99.90
30069;DHT22;16894;49.456;10.644;2024-01-25T10:04:17;8.20;1.00
30069;DHT22;16894;49.456;10.644;2024-01-25T10:06:47;8.10;1.00
30069;DHT22;16894;49.456;10.644;2024-01-25T10:09:13;8.10;99.90
30069;DHT22;16894;49.456;10.644;2024-01-25T10:11:39;8.20;1.00
30069;DHT22;16894;49.456;10.644;2024-01-25T10:14:05;8.30;1.00
30069;DHT22;16894;49.456;10.644;2024-01-25T10:16:31;8.40;1.00
30069;DHT22;16894;49.456;10.644;2024-01-25T10:18:57;8.40;1.00
30069;DHT22;16894;49.456;10.644;2024-01-25T10:21:23;8.40;1.00
30069;DHT22;16894;49.456;10.644;2024-01-25T10:23:48;8.20;1.00
30069;DHT22;16894;49.456;10.644;2024-01-25T10:26:15;8.30;99.90
30069;DHT22;16894;49.456;10.644;2024-01-25T10:28:41;8.20;99.90
30069;DHT22;16894;49.456;10.644;2024-01-25T10:31:07;8.30;99.90
30069;DHT22;16894;49.456;10.644;2024-01-25T10:33:34;8.20;92.40
30069;DHT22;16894;49.456;10.644;2024-01-25T10:36:00;8.30;99.90
30069;DHT22;16894;49.456;10.644;2024-01-25T10:38:35;8.30;99.90
30069;DHT22;16894;49.456;10.644;2024-01-25T10:41:02;8.40;99.90
30069;DHT22;16894;49.456;10.644;2024-01-25T10:43:28;8.50;99.90
30069;DHT22;16894;49.456;10.644;2024-01-25T10:45:56;8.50;99.90
30069;DHT22;16894;49.456;10.644;2024-01-25T10:48:26;8.60;1.00
30069;DHT22;16894;49.456;10.644;2024-01-25T10:50:55;8.50;99.90
30069;DHT22;16894;49.456;10.644;2024-01-25T10:53:22;8.60;99.90
30069;DHT22;16894;49.456;10.644;2024-01-25T10:55:48;8.60;99.90
30069;DHT22;16894;49.456;10.644;2024-01-25T10:58:14;8.70;99.90
30069;DHT22;16894;49.456;10.644;2024-01-25T11:00:40;8.80;99.90
30069;DHT22;16894;49.456;10.644;2024-01-25T11:03:06;8.80;99.90
30069;DHT22;16894;49.456;10.644;2024-01-25T11:05:32;8.70;94.50
30069;DHT22;16894;49.456;10.644;2024-01-25T11:07:57;8.60;44.10
30069;DHT22;16894;49.456;10.644;2024-01-25T11:10:27;8.60;99.90
30069;DHT22;16894;49.456;10.644;2024-01-25T11:12:59;8.60;91.80
30069;DHT22;16894;49.456;10.644;2024-01-25T11:15:32;8.50;99.90
30069;DHT22;16894;49.456;10.644;2024-01-25T11:17:58;8.50;99.90
30069;DHT22;16894;49.456;10.644;2024-01-25T11:20:24;8.50;99.90
30069;DHT22;16894;49.456;10.644;2024-01-25T11:23:03;8.50;92.90
30069;DHT22;16894;49.456;10.644;2024-01-25T11:25:30;8.50;99.90
30069;DHT22;16894;49.456;10.644;2024-01-25T11:27:56;8.60;99.90
30069;DHT22;16894;49.456;10.644;2024-01-25T11:30:21;8.50;99.90
30069;DHT22;16894;49.456;10.644;2024-01-25T11:32:47;8.60;67.50
30069;DHT22;16894;49.456;10.644;2024-01-25T11:35:13;8.60;28.30
30069;DHT22;16894;49.456;10.644;2024-01-25T11:37:48;8.60;71.90
30069;DHT22;16894;49.456;10.644;2024-01-25T11:40:15;8.70;99.90
30069;DHT22;16894;49.456;10.644;2024-01-25T11:42:44;8.80;55.00
30069;DHT22;16894;49.456;10.644;2024-01-25T11:45:10;8.90;26.30
30069;DHT22;16894;49.456;10.644;2024-01-25T11:47:36;8.90;41.10
30069;DHT22;16894;49.456;10.644;2024-01-25T11:50:02;8.90;72.10
30069;DHT22;16894;49.456;10.644;2024-01-25T11:52:28;9.00;1.00
30069;DHT22;16894;49.456;10.644;2024-01-25T11:54:54;9.00;1.00
30069;DHT22;16894;49.456;10.644;2024-01-25T11:57:19;9.10;1.00
30069;DHT22;16894;49.456;10.644;2024-01-25T11:59:45;9.30;1.00
30069;DHT22;16894;49.456;10.644;2024-01-25T12:02:14;9.30;1.00
30069;DHT22;16894;49.456;10.644;2024-01-25T12:04:40;9.30;99.90
30069;DHT22;16894;49.456;10.644;2024-01-25T12:07:05;9.10;99.90
30069;DHT22;16894;49.456;10.644;2024-01-25T12:09:31;9.10;99.90
30069;DHT22;16894;49.456;10.644;2024-01-25T12:11:57;9.10;99.90
30069;DHT22;16894;49.456;10.644;2024-01-25T12:14:25;9.10;99.90
30069;DHT22;16894;49.456;10.644;2024-01-25T12:16:50;9.00;99.90
30069;DHT22;16894;49.456;10.644;2024-01-25T12:19:16;9.00;99.90
30069;DHT22;16894;49.456;10.644;2024-01-25T12:21:45;9.10;99.90
30069;DHT22;16894;49.456;10.644;2024-01-25T12:24:10;9.20;99.90
30069;DHT22;16894;49.456;10.644;2024-01-25T12:26:36;9.10;99.90
30069;DHT22;16894;49.456;10.644;2024-01-25T12:29:02;9.20;99.90
30069;DHT22;16894;49.456;10.644;2024-01-25T12:31:28;9.20;99.90
30069;DHT22;16894;49.456;10.644;2024-01-25T12:33:54;9.00;99.90
30069;DHT22;16894;49.456;10.644;2024-01-25T12:36:19;8.90;99.90
30069;DHT22;16894;49.456;10.644;2024-01-25T12:38:45;8.90;99.90
30069;DHT22;16894;49.456;10.644;2024-01-25T12:41:10;8.90;99.90
30069;DHT22;16894;49.456;10.644;2024-01-25T12:43:36;8.90;99.90
30069;DHT22;16894;49.456;10.644;2024-01-25T12:46:01;9.10;99.90
30069;DHT22;16894;49.456;10.644;2024-01-25T12:48:27;9.10;99.90
30069;DHT22;16894;49.456;10.644;2024-01-25T12:50:52;9.20;99.90
30069;DHT22;16894;49.456;10.644;2024-01-25T12:53:18;9.10;99.90
30069;DHT22;16894;49.456;10.644;2024-01-25T12:55:44;9.20;99.90
30069;DHT22;16894;49.456;10.644;2024-01-25T12:58:09;9.20;99.90
30069;DHT22;16894;49.456;10.644;2024-01-25T13:00:35;9.20;99.90
30069;DHT22;16894;49.456;10.644;2024-01-25T13:03:00;9.40;99.90
30069;DHT22;16894;49.456;10.644;2024-01-25T13:05:27;9.40;99.90
30069;DHT22;16894;49.456;10.644;2024-01-25T13:07:52;9.60;99.90
30069;DHT22;16894;49.456;10.644;2024-01-25T13:10:18;9.70;99.90
30069;DHT22;16894;49.456;10.644;2024-01-25T13:12:44;9.70;99.90
30069;DHT22;16894;49.456;10.644;2024-01-25T13:15:09;9.90;99.90
30069;DHT22;16894;49.456;10.644;2024-01-25T13:17:35;10.30;99.90
30069;DHT22;16894;49.456;10.644;2024-01-25T13:20:02;10.20;99.90
30069;DHT22;16894;49.456;10.644;2024-01-25T13:22:28;10.10;99.90
30069;DHT22;16894;49.456;10.644;2024-01-25T13:24:55;10.00;99.90
30069;DHT22;16894;49.456;10.644;2024-01-25T13:27:21;9.70;99.90
30069;DHT22;16894;49.456;10.644;2024-01-25T13:29:47;9.70;99.90
30069;DHT22;16894;49.456;10.644;2024-01-25T13:32:12;9.50;99.90
30069;DHT22;16894;49.456;10.644;2024-01-25T13:34:38;9.40;99.90
30069;DHT22;16894;49.456;10.644;2024-01-25T13:37:03;9.40;99.90
30069;DHT22;16894;49.456;10.644;2024-01-25T13:39:29;9.40;99.90
30069;DHT22;16894;49.456;10.644;2024-01-25T13:41:54;9.40;99.90
30069;DHT22;16894;49.456;10.644;2024-01-25T13:44:21;9.50;99.90
30069;DHT22;16894;49.456;10.644;2024-01-25T13:46:47;9.40;99.90
30069;DHT22;16894;49.456;10.644;2024-01-25T13:49:13;9.40;99.90
30069;DHT22;16894;49.456;10.644;2024-01-25T13:51:39;9.50;99.90
30069;DHT22;16894;49.456;10.644;2024-01-25T13:54:04;9.50;99.90
30069;DHT22;16894;49.456;10.644;2024-01-25T13:56:30;9.70;99.90
30069;DHT22;16894;49.456;10.644;2024-01-25T13:58:55;9.70;99.90
30069;DHT22;16894;49.456;10.644;2024-01-25T14:01:21;9.80;99.90
30069;DHT22;16894;49.456;10.644;2024-01-25T14:03:47;9.90;99.90
30069;DHT22;16894;49.456;10.644;2024-01-25T14:06:12;9.70;99.90
30069;DHT22;16894;49.456;10.644;2024-01-25T14:08:38;9.60;99.90
30069;DHT22;16894;49.456;10.644;2024-01-25T14:11:03;9.50;99.90
30069;DHT22;16894;49.456;10.644;2024-01-25T14:13:31;9.50;99.90
30069;DHT22;16894;49.456;10.644;2024-01-25T14:15:57;9.40;99.90
30069;DHT22;16894;49.456;10.644;2024-01-25T14:18:26;9.30;99.90
30069;DHT22;16894;49.456;10.644;2024-01-25T14:20:52;9.20;99.90
30069;DHT22;16894;49.456;10.644;2024-01-25T14:23:17;9.10;99.90
30069;DHT22;16894;49.456;10.644;2024-01-25T14:25:43;9.10;99.90
30069;DHT22;16894;49.456;10.644;2024-01-25T14:28:10;9.00;99.90
30069;DHT22;16894;49.456;10.644;2024-01-25T14:30:36;9.00;99.90
30069;DHT22;16894;49.456;10.644;2024-01-25T14:33:01;8.90;99.90
30069;DHT22;16894;49.456;10.644;2024-01-25T14:35:29;8.60;99.90
30069;DHT22;16894;49.456;10.644;2024-01-25T14:37:55;8.60;99.90
30069;DHT22;16894;49.456;10.644;2024-01-25T14:40:21;8.50;99.90
30069;DHT22;16894;49.456;10.644;2024-01-25T14:42:46;8.50;99.90
30069;DHT22;16894;49.456;10.644;2024-01-25T14:45:12;8.40;99.90
30069;DHT22;16894;49.456;10.644;2024-01-25T14:47:38;8.30;99.90
30069;DHT22;16894;49.456;10.644;2024-01-25T14:50:04;8.30;99.90
30069;DHT22;16894;49.456;10.644;2024-01-25T14:52:29;8.30;99.90
30069;DHT22;16894;49.456;10.644;2024-01-25T14:55:01;8.20;1.00
30069;DHT22;16894;49.456;10.644;2024-01-25T14:57:27;8.10;1.00
30069;DHT22;16894;49.456;10.644;2024-01-25T14:59:53;8.10;1.00
30069;DHT22;16894;49.456;10.644;2024-01-25T15:02:18;8.00;1.00
30069;DHT22;16894;49.456;10.644;2024-01-25T15:04:44;8.00;1.00
30069;DHT22;16894;49.456;10.644;2024-01-25T15:07:09;7.90;99.90
30069;DHT22;16894;49.456;10.644;2024-01-25T15:09:35;7.90;99.90
30069;DHT22;16894;49.456;10.644;2024-01-25T15:12:01;7.90;99.90
30069;DHT22;16894;49.456;10.644;2024-01-25T15:14:26;7.80;99.90
30069;DHT22;16894;49.456;10.644;2024-01-25T15:16:52;7.80;99.90
30069;DHT22;16894;49.456;10.644;2024-01-25T15:19:18;7.80;99.90
30069;DHT22;16894;49.456;10.644;2024-01-25T15:21:43;7.70;99.90
30069;DHT22;16894;49.456;10.644;2024-01-25T15:24:09;7.60;1.00
30069;DHT22;16894;49.456;10.644;2024-01-25T15:26:39;7.50;1.00